Latest Weather Observations for Coffs Harbour

IDN60801

Issued at 12:35 am EST Friday 29 August 2014 (issued every 30 minutes, with the page automatically refreshed every 10 minutes)

About weather observations | Map of weather stations | Latest weather observations for NSW | Other Formats
Station Details ID: 059040 Name: COFFS HARBOUR MO Lat: -30.31 Lon: 153.12 Height: 5.0 m
Data from the previous 72 hours. | See also: Recent months at Coffs Harbour
Date/Time
EST
Temp
°C
App
Temp
°C
Dew
Point
Rel
Hum
%
Delta-T
°C
Wind Press
QNH
hPa
Press
MSL
hPa
Rain
since 9 am
mm
Dir
 
Spd
km/h
Gust
km/h
Spd
kts
Gust
kts
29/12:30am 13.9 8.8 7.8 66 3.0 SW 24 35 13 19 1023.0 - 0.6
29/12:00am 13.8 9.2 8.1 68 2.8 SW 22 30 12 16 1023.1 1023.2 0.6
 
Date/Time
EST
Temp
°C
App
Temp
°C
Dew
Point
Rel
Hum
%
Delta-T
°C
Wind Press
QNH
hPa
Press
MSL
hPa
Rain
since 9 am
mm
Dir
 
Spd
km/h
Gust
km/h
Spd
kts
Gust
kts
28/11:30pm 13.8 9.3 8.4 70 2.7 SW 22 30 12 16 1023.4 - 0.6
28/11:00pm 13.3 8.5 8.9 74 2.2 SW 24 39 13 21 1023.4 - 0.4
28/10:30pm 14.1 9.8 8.0 66 3.0 WSW 20 28 11 15 1023.3 - 0.2
28/10:00pm 14.6 10.4 8.2 65 3.2 WSW 20 33 11 18 1023.5 - 0.2
28/09:30pm 14.7 10.5 8.1 64 3.3 WSW 20 28 11 15 1023.6 - 0.2
28/09:00pm 14.9 11.0 8.8 67 3.1 WSW 19 26 10 14 1023.5 1023.6 0.2
28/08:30pm 14.5 10.7 9.0 69 2.8 WSW 19 26 10 14 1023.2 - 0.2
28/08:00pm 14.6 10.3 9.3 70 2.7 WSW 22 33 12 18 1023.0 - 0.2
28/07:30pm 14.5 11.0 10.1 75 2.3 SW 19 26 10 14 1023.2 - 0.2
28/07:00pm 14.8 11.2 10.0 73 2.5 WSW 19 24 10 13 1023.0 - 0.2
28/06:30pm 15.3 11.2 10.1 71 2.7 SW 22 32 12 17 1022.7 - 0.2
28/06:00pm 15.0 11.6 10.4 74 2.4 WSW 19 26 10 14 1022.3 1022.4 0.2
28/05:30pm 15.6 11.9 10.0 69 2.9 WSW 20 26 11 14 1022.0 - 0.2
28/05:00pm 16.5 10.5 10.2 66 3.3 SSW 32 44 17 24 1021.6 - 0.2
28/04:25pm 17.7 9.6 10.1 61 4.0 S 43 65 23 35 1021.0 - 0.2
28/04:00pm 17.8 11.0 10.5 62 3.9 S 37 48 20 26 1020.6 - 0.2
28/03:30pm 18.5 11.3 10.7 60 4.2 S 39 54 21 29 1020.3 - 0.2
28/03:00pm 18.5 10.9 10.5 59 4.3 S 41 54 22 29 1020.4 1020.5 0.2
28/02:32pm 18.7 12.7 12.2 66 3.6 S 35 54 19 29 1020.2 - 0.2
28/02:30pm 18.8 12.7 11.9 64 3.8 S 35 43 19 23 1020.2 - 0.2
28/02:07pm 18.0 10.7 10.1 60 4.2 S 39 57 21 31 1020.5 - 0.2
28/02:00pm 17.2 11.8 12.9 76 2.4 S 33 46 18 25 1020.6 - 0.2
28/01:30pm 18.1 10.3 11.3 64 3.7 S 43 57 23 31 1020.6 - 0.2
28/01:19pm 17.8 11.3 11.8 68 3.3 SSW 37 57 20 31 1020.3 - 0.2
28/01:14pm 17.7 11.2 11.6 67 3.3 SSW 37 46 20 25 1020.3 - 0.2
28/01:00pm 19.3 13.0 12.3 64 3.9 S 37 50 20 27 1020.3 - 0.2
28/12:30pm 18.7 12.0 10.9 60 4.2 S 37 52 20 28 1020.4 - 0.2
28/12:00pm 19.2 12.3 11.5 61 4.2 S 39 50 21 27 1020.6 1020.7 0.0
28/11:30am 18.7 11.7 11.4 62 4.0 S 39 52 21 28 1020.8 - 0.0
28/11:00am 18.3 11.5 12.1 67 3.4 SSW 39 54 21 29 1021.0 - 0.0
28/10:30am 17.5 11.4 11.8 69 3.1 SSW 35 46 19 25 1020.9 - 0.0
28/10:00am 17.5 12.1 12.2 71 2.9 SSW 32 41 17 22 1021.0 - 0.0
28/09:30am 17.2 12.9 13.3 78 2.2 SSW 28 39 15 21 1020.9 - 0.0
28/09:00am 15.7 11.3 13.0 84 1.5 SW 28 35 15 19 1020.6 1020.7 76.4
28/08:30am 14.8 10.7 12.8 88 1.1 SW 26 35 14 19 1020.3 - 76.4
28/08:00am 14.1 9.9 12.4 89 0.9 WSW 26 33 14 18 1020.2 - 76.2
28/07:30am 13.6 10.2 12.5 93 0.6 WSW 22 30 12 16 1019.9 - 76.2
28/07:18am 13.5 10.1 12.4 93 0.6 SW 22 30 12 16 1019.7 - 76.2
28/07:00am 13.5 10.5 12.6 94 0.5 SW 20 26 11 14 1019.8 - 76.0
28/06:58am 13.6 10.5 12.3 92 0.7 SW 20 28 11 15 1019.9 - 75.6
28/06:40am 13.6 9.4 12.3 92 0.7 SW 26 32 14 17 1019.6 - 74.6
28/06:30am 13.7 9.4 12.2 91 0.8 SW 26 33 14 18 1019.8 - 74.6
28/06:22am 13.8 9.9 12.1 89 0.9 SW 24 33 13 18 1019.7 - 74.4
28/06:00am 13.6 9.3 12.1 91 0.8 WSW 26 33 14 18 1019.3 1019.4 73.8
28/05:30am 13.6 9.4 12.3 92 0.7 WSW 26 35 14 19 1018.9 - 73.8
28/05:00am 13.6 9.4 12.5 93 0.6 SW 26 35 14 19 1018.5 - 73.8
28/04:30am 13.7 9.6 12.6 93 0.6 WSW 26 33 14 18 1018.3 - 73.6
28/04:00am 13.9 9.0 12.6 92 0.7 SW 30 37 16 20 1018.2 - 73.4
28/03:30am 14.2 9.3 12.7 91 0.8 SW 30 39 16 21 1018.2 - 73.4
28/03:00am 15.4 10.6 13.0 85 1.3 SW 30 50 16 27 1018.0 1018.1 73.4
28/02:59am 15.6 10.5 13.1 85 1.4 SSW 32 50 17 27 1018.0 - 73.4
28/02:47am 17.1 10.6 12.8 76 2.4 S 39 57 21 31 1017.8 - 73.4
28/02:30am 17.1 10.9 12.6 75 2.5 S 37 50 20 27 1017.8 - 73.4
28/02:02am 16.1 10.6 12.5 79 2.0 S 33 52 18 28 1017.9 - 73.4
28/02:00am 16.0 10.3 13.1 83 1.6 S 35 52 19 28 1018.0 - 73.4
28/01:59am 16.4 10.4 13.2 81 1.8 S 37 52 20 28 1018.1 - 73.4
28/01:43am 15.0 9.4 12.0 82 1.6 SE 33 39 18 21 1017.9 - 73.2
28/01:38am 15.3 9.1 12.8 85 1.4 S 37 67 20 36 1018.1 - 72.4
28/01:36am 15.1 9.6 13.5 90 0.9 S 35 46 19 25 1018.1 - 72.4
28/01:35am 14.8 9.3 13.5 92 0.7 S 35 46 19 25 1018.1 - 72.4
28/01:30am 14.7 12.1 13.8 94 0.5 SW 20 30 11 16 1017.8 - 71.6
28/01:00am 14.6 11.3 13.9 96 0.4 SW 24 33 13 18 1017.9 - 70.2
28/12:30am 15.6 11.6 14.0 90 0.9 S 28 33 15 18 1018.1 - 70.2
28/12:12am 14.3 10.5 13.6 96 0.4 WSW 26 35 14 19 1017.9 - 64.8
28/12:00am 14.2 11.1 13.5 96 0.4 SW 22 32 12 17 1018.0 1018.1 64.0
 
Date/Time
EST
Temp
°C
App
Temp
°C
Dew
Point
Rel
Hum
%
Delta-T
°C
Wind Press
QNH
hPa
Press
MSL
hPa
Rain
since 9 am
mm
Dir
 
Spd
km/h
Gust
km/h
Spd
kts
Gust
kts
27/11:42pm 14.2 11.7 13.5 96 0.4 SW 19 24 10 13 1018.0 - 64.0
27/11:30pm 14.5 12.4 13.6 94 0.5 SW 17 22 9 12 1018.0 - 64.0
27/11:20pm 15.1 11.1 14.0 93 0.6 S 28 46 15 25 1018.3 - 63.8
27/11:09pm 15.1 10.1 13.9 92 0.7 S 33 50 18 27 1018.3 - 62.6
27/11:06pm 14.9 9.8 13.8 93 0.6 S 33 50 18 27 1018.2 - 62.6
27/11:00pm 15.0 10.2 13.9 93 0.6 S 32 43 17 23 1018.2 - 62.6
27/10:44pm 14.0 10.5 13.3 96 0.4 SSW 24 28 13 15 1018.3 - 62.0
27/10:33pm 14.0 8.9 13.1 94 0.5 SW 32 52 17 28 1018.0 - 61.6
27/10:32pm 14.0 9.3 13.1 94 0.5 SW 30 52 16 28 1018.1 - 61.6
27/10:30pm 13.9 9.6 13.2 96 0.4 SW 28 43 15 23 1018.0 - 61.6
27/10:25pm 13.8 10.2 13.1 96 0.4 SW 24 33 13 18 1017.8 - 61.2
27/10:14pm 13.7 10.1 13.0 96 0.4 WSW 24 35 13 19 1017.7 - 60.2
27/10:00pm 13.7 10.1 13.0 96 0.4 SW 24 32 13 17 1018.0 - 60.2
27/09:49pm 13.8 11.0 13.1 96 0.4 WSW 20 28 11 15 1018.1 - 59.8
27/09:44pm 13.9 11.3 13.2 96 0.4 WSW 19 24 10 13 1018.1 - 59.8
27/09:30pm 14.3 11.8 13.6 96 0.4 SW 19 24 10 13 1018.3 - 59.8
27/09:13pm 14.7 10.1 13.4 92 0.7 S 30 37 16 20 1018.7 - 58.6
27/09:00pm 15.0 9.2 13.9 93 0.6 S 37 50 20 27 1018.6 1018.7 57.8
27/08:50pm 15.1 9.4 14.2 94 0.5 S 37 48 20 26 1018.6 - 56.8
27/08:39pm 13.9 9.6 13.2 96 0.4 SW 28 33 15 18 1018.6 - 55.8
27/08:32pm 13.9 10.7 13.2 96 0.4 SW 22 28 12 15 1018.3 - 55.6
27/08:30pm 13.9 10.7 13.2 96 0.4 SW 22 28 12 15 1018.4 - 55.6
27/08:00pm 13.8 10.5 12.9 94 0.5 WSW 22 30 12 16 1018.2 - 55.4
27/07:36pm 13.9 9.5 13.0 94 0.5 SSW 28 43 15 23 1018.6 - 55.4
27/07:30pm 13.9 11.0 13.0 94 0.5 SSW 20 30 11 16 1018.6 - 55.4
27/07:11pm 13.7 8.0 13.0 96 0.4 S 35 57 19 31 1018.4 - 54.2
27/07:00pm 13.9 11.6 13.0 94 0.5 WSW 17 26 9 14 1017.7 - 47.0
27/06:54pm 14.0 11.1 12.9 93 0.6 SW 20 32 11 17 1017.6 - 46.0
27/06:39pm 14.1 9.0 13.0 93 0.6 SW 32 44 17 24 1017.6 - 44.8
27/06:30pm 13.5 9.0 12.6 94 0.5 SW 28 39 15 21 1017.6 - 44.8
27/06:16pm 13.3 8.7 12.4 94 0.5 SW 28 39 15 21 1017.7 - 44.2
27/06:15pm 13.3 8.7 12.4 94 0.5 SW 28 39 15 21 1017.8 - 44.2
27/06:00pm 13.7 8.1 12.2 91 0.8 S 33 39 18 21 1017.7 1017.8 44.0
27/05:48pm 14.5 7.5 13.6 94 0.5 SSE 43 78 23 42 1018.3 - 37.6
27/05:43pm 14.6 12.1 13.5 93 0.6 SSW 19 28 10 15 1017.1 - 36.4
27/05:30pm 14.8 9.3 13.5 92 0.7 SSW 35 44 19 24 1016.8 - 35.4
27/05:12pm 15.6 11.2 14.2 91 0.8 SW 30 35 16 19 1016.4 - 34.6
27/05:00pm 16.2 9.7 13.9 86 1.3 S 41 54 22 29 1016.5 - 34.4
27/04:57pm 16.5 9.9 13.8 84 1.5 S 41 52 22 28 1016.5 - 34.4
27/04:38pm 15.9 9.4 14.1 89 1.0 S 41 59 22 32 1016.8 - 34.2
27/04:36pm 15.9 9.0 14.1 89 1.0 S 43 59 23 32 1016.7 - 34.2
27/04:30pm 16.1 9.1 14.2 88 1.1 S 44 61 24 33 1016.7 - 34.2
27/04:13pm 16.5 9.5 13.7 83 1.6 S 43 56 23 30 1016.6 - 34.2
27/04:00pm 16.0 10.8 14.4 90 0.9 S 35 52 19 28 1016.1 - 34.2
27/03:48pm 14.7 6.0 12.5 87 1.2 SSE 50 78 27 42 1016.6 - 32.4
27/03:39pm 16.3 10.2 14.2 87 1.2 S 39 57 21 31 1016.1 - 31.2
27/03:27pm 16.5 9.5 13.7 83 1.6 S 43 57 23 31 1016.0 - 31.2
27/03:16pm 16.5 11.1 14.0 85 1.4 S 35 54 19 29 1016.0 - 31.0
27/03:00pm 16.7 10.5 13.7 82 1.7 S 39 54 21 29 1016.0 1016.1 30.8
27/02:53pm 16.5 9.5 14.2 86 1.3 S 44 63 24 34 1016.0 - 30.8
27/02:45pm 16.6 9.1 13.8 83 1.6 S 46 61 25 33 1015.9 - 30.8
27/02:30pm 17.5 10.7 13.0 75 2.5 S 41 54 22 29 1015.9 - 30.2
27/02:00pm 17.6 11.2 13.1 75 2.5 S 39 52 21 28 1016.1 - 30.2
27/01:37pm 17.8 11.4 13.2 74 2.6 S 39 57 21 31 1016.0 - 30.2
27/01:30pm 17.8 12.3 13.7 77 2.3 S 35 48 19 26 1016.2 - 30.2
27/01:00pm 17.5 11.4 13.0 75 2.5 S 37 54 20 29 1016.7 - 30.2
27/12:30pm 17.8 12.3 12.6 71 2.9 SSE 33 46 18 25 1017.1 - 30.2
27/12:00pm 17.5 11.8 13.0 75 2.5 SSE 35 46 19 25 1017.5 1017.6 30.2
27/11:30am 17.2 12.0 13.5 79 2.1 SE 33 48 18 26 1018.1 - 30.2
27/11:14am 17.3 11.8 12.4 73 2.7 SE 33 52 18 28 1018.3 - 30.0
27/11:00am 17.0 11.8 13.4 79 2.0 SSE 33 46 18 25 1018.4 - 30.0
27/10:46am 15.0 10.8 13.6 91 0.8 SSE 28 41 15 22 1018.5 - 29.8
27/10:26am 13.5 10.8 13.0 97 0.3 NW 19 30 10 16 1018.8 - 29.4
27/10:00am 13.4 11.9 13.0 97 0.2 WNW 13 20 7 11 1019.2 - 25.6
27/09:49am 13.5 12.0 13.0 97 0.3 W 13 17 7 9 1019.4 - 14.4
27/09:30am 13.5 12.4 13.0 97 0.3 NW 11 17 6 9 1019.0 - 7.4
27/09:00am 13.6 12.4 12.9 95 0.4 WNW 11 13 6 7 1019.0 1019.1 84.2
27/08:30am 13.3 12.1 12.7 96 0.3 WNW 11 17 6 9 1019.2 - 80.0
27/08:00am 13.0 11.3 12.4 96 0.3 W 13 17 7 9 1019.1 - 73.8
27/07:30am 12.8 11.0 12.2 96 0.3 W 13 17 7 9 1018.5 - 67.2
27/07:00am 12.7 10.9 12.1 96 0.3 WSW 13 17 7 9 1018.1 - 64.4
27/06:30am 12.7 11.2 11.9 95 0.4 WSW 11 13 6 7 1018.0 - 60.4
27/06:00am 12.7 10.1 11.9 95 0.4 W 17 28 9 15 1017.5 1017.6 56.4
27/05:30am 12.8 9.6 11.9 94 0.5 WSW 20 32 11 17 1017.6 - 52.4
27/05:00am 13.0 9.5 12.1 94 0.5 WSW 22 32 12 17 1017.5 - 49.0
27/04:30am 13.1 10.0 12.2 94 0.5 SW 20 28 11 15 1017.4 - 45.6
27/04:00am 13.2 10.3 12.3 94 0.5 WSW 19 24 10 13 1016.8 - 40.6
27/03:30am 13.3 9.0 12.2 93 0.6 WSW 26 35 14 19 1016.7 - 36.6
27/03:00am 13.3 9.9 12.4 94 0.5 WSW 22 30 12 16 1017.2 1017.3 34.0
27/02:30am 13.5 9.3 12.4 93 0.6 SW 26 37 14 20 1017.4 - 29.8
27/02:03am 13.5 8.6 12.4 93 0.6 SW 30 41 16 22 1017.2 - 27.0
27/02:00am 13.5 8.6 12.4 93 0.6 SW 30 41 16 22 1017.4 - 26.8
27/01:30am 13.4 8.9 12.5 94 0.5 SW 28 35 15 19 1017.7 - 24.6
27/01:24am 13.4 8.9 12.5 94 0.5 SW 28 33 15 18 1017.4 - 24.2
27/01:00am 13.6 12.4 12.9 95 0.4 W 11 15 6 8 1017.6 - 21.8
27/12:30am 13.6 13.2 13.1 97 0.3 NW 7 11 4 6 1018.2 - 19.2
27/12:23am 13.7 12.6 13.0 96 0.4 WNW 11 13 6 7 1018.3 - 18.6
27/12:06am 13.8 12.3 13.1 96 0.4 W 13 15 7 8 1018.4 - 18.0
27/12:00am 13.8 12.3 13.1 96 0.4 W 13 17 7 9 1018.4 1018.5 18.0
 
Date/Time
EST
Temp
°C
App
Temp
°C
Dew
Point
Rel
Hum
%
Delta-T
°C
Wind Press
QNH
hPa
Press
MSL
hPa
Rain
since 9 am
mm
Dir
 
Spd
km/h
Gust
km/h
Spd
kts
Gust
kts
26/11:30pm 13.9 12.4 13.0 94 0.5 WSW 13 17 7 9 1018.7 - 16.0
26/11:19pm 14.0 12.1 12.9 93 0.6 WSW 15 19 8 10 1019.0 - 15.2
26/11:00pm 14.0 12.5 13.1 94 0.5 W 13 19 7 10 1018.9 - 14.0
26/10:30pm 14.0 11.2 13.1 94 0.5 SW 20 26 11 14 1019.2 - 13.2
26/10:00pm 14.1 11.3 13.2 94 0.5 SW 20 30 11 16 1019.4 - 10.4
26/09:31pm 14.2 12.8 13.3 94 0.5 WSW 13 17 7 9 1019.4 - 6.8
26/09:30pm 14.2 12.7 13.1 93 0.6 WSW 13 19 7 10 1019.4 - 6.8
26/09:21pm 14.1 11.4 13.0 93 0.6 WSW 19 26 10 14 1019.2 - 6.2
26/09:08pm 14.4 11.6 13.3 93 0.6 WSW 20 33 11 18 1019.2 - 5.8
26/09:00pm 14.7 11.7 13.6 93 0.6 WSW 22 33 12 18 1019.2 1019.3 5.2
26/08:58pm 14.8 11.8 13.7 93 0.6 SW 22 30 12 16 1019.2 - 5.2
26/08:35pm 15.1 14.3 13.9 92 0.7 S 11 19 6 10 1019.2 - 4.4
26/08:30pm 15.1 14.7 14.0 93 0.6 SW 9 19 5 10 1019.2 - 4.0
26/08:14pm 15.1 14.2 13.7 91 0.8 WSW 11 15 6 8 1019.1 - 3.8
26/08:00pm 15.4 12.9 13.6 89 1.0 SW 19 20 10 11 1018.8 - 3.6
26/07:54pm 15.6 13.0 13.8 89 1.0 SSE 20 33 11 18 1018.7 - 3.4
26/07:30pm 16.2 14.3 13.1 82 1.7 SW 15 22 8 12 1018.7 - 3.4
26/07:00pm 17.7 15.1 13.2 75 2.5 S 19 26 10 14 1018.8 - 3.4
26/06:30pm 17.7 14.9 13.1 74 2.6 SE 20 30 11 16 1018.6 - 3.4
26/06:00pm 17.7 14.4 12.9 73 2.7 SE 22 32 12 17 1018.3 1018.4 3.4
26/05:30pm 17.9 14.7 13.1 73 2.7 SE 22 32 12 17 1017.9 - 3.4
26/05:00pm 18.1 15.7 12.7 70 3.0 SE 17 26 9 14 1017.8 - 3.4
26/04:30pm 18.7 15.9 12.6 67 3.4 SSE 19 26 10 14 1017.7 - 3.4
26/04:00pm 19.1 16.4 11.8 62 4.0 SSE 17 26 9 14 1017.8 - 3.4
26/03:30pm 18.7 16.0 11.8 64 3.8 SSE 17 24 9 13 1017.7 - 3.4
26/03:00pm 19.6 16.4 11.4 59 4.5 SSE 19 24 10 13 1017.8 1017.9 3.4
26/02:30pm 20.1 16.9 11.4 57 4.8 SSE 19 24 10 13 1017.9 - 3.4
26/02:00pm 19.6 16.9 12.9 65 3.8 S 19 26 10 14 1018.0 - 3.4
26/01:30pm 18.9 16.2 13.4 70 3.1 S 20 28 11 15 1018.4 - 3.4
26/01:00pm 18.7 15.9 12.6 67 3.4 S 19 28 10 15 1018.6 - 3.4
26/12:30pm 18.5 16.3 13.2 71 3.0 S 17 28 9 15 1018.9 - 3.4
26/12:00pm 17.7 15.5 13.2 75 2.5 SW 17 22 9 12 1019.4 1019.5 3.2
26/11:30am 17.1 14.6 13.5 79 2.0 WSW 19 26 10 14 1019.7 - 3.2
26/11:00am 16.6 14.0 13.8 83 1.6 WSW 20 28 11 15 1020.0 - 3.2
26/10:30am 15.7 14.3 14.5 93 0.7 WSW 15 22 8 12 1020.5 - 3.2
26/10:00am 14.5 12.3 13.4 93 0.6 WSW 17 22 9 12 1020.8 - 3.2
26/09:43am 14.1 11.4 13.4 96 0.4 WSW 20 26 11 14 1020.8 - 3.2
26/09:30am 13.9 10.7 13.2 96 0.4 WSW 22 32 12 17 1020.8 - 3.2
26/09:00am 14.2 11.9 13.1 93 0.6 SW 17 20 9 11 1020.8 1020.9 6.2
26/08:52am 14.4 12.2 13.3 93 0.6 SW 17 24 9 13 1020.7 - 5.8
26/08:30am 13.8 11.5 12.9 94 0.5 SW 17 22 9 12 1020.6 - 5.0
26/08:29am 13.8 11.9 12.9 94 0.5 SW 15 22 8 12 1020.6 - 4.8
26/08:00am 13.7 11.7 12.8 94 0.5 WSW 15 22 8 12 1020.3 - 4.2
26/07:30am 13.3 11.6 12.6 95 0.4 WSW 13 19 7 10 1020.0 - 4.2
26/07:00am 13.1 12.1 12.4 95 0.4 SW 9 13 5 7 1019.8 - 4.2
26/06:30am 13.1 10.6 12.4 95 0.4 WSW 17 20 9 11 1019.8 - 4.2
26/06:00am 13.3 10.9 12.6 95 0.4 SW 17 20 9 11 1019.8 1019.9 4.2
26/05:30am 13.3 12.0 12.6 95 0.4 WSW 11 20 6 11 1019.5 - 3.6
26/05:00am 13.1 10.6 12.4 95 0.4 WSW 17 22 9 12 1019.4 - 3.4
26/04:46am 13.0 10.5 12.3 95 0.4 WSW 17 20 9 11 1019.4 - 3.2
26/04:34am 13.1 11.7 12.2 94 0.5 WSW 11 15 6 8 1019.5 - 3.0
26/04:30am 13.1 12.1 12.2 94 0.5 SW 9 13 5 7 1019.6 - 3.0
26/04:19am 13.2 11.8 12.1 93 0.6 S 11 13 6 7 1019.7 - 2.0
26/04:06am 13.3 12.2 11.8 91 0.8 SSW 9 13 5 7 1019.5 - 1.0
26/04:00am 13.4 11.8 11.7 89 0.9 SW 11 13 6 7 1019.3 - 0.6
26/03:30am 13.2 10.5 11.7 91 0.8 SW 17 26 9 14 1018.9 - 0.4
26/03:00am 13.0 10.3 11.7 92 0.7 WSW 17 22 9 12 1018.8 1018.9 0.4
26/02:30am 12.9 10.9 11.4 91 0.8 SW 13 17 7 9 1018.9 - 0.4
26/02:00am 12.9 11.0 11.8 93 0.6 WSW 13 17 7 9 1019.3 - 0.4
26/01:30am 13.0 11.5 11.9 93 0.6 SW 11 15 6 8 1019.6 - 0.4
26/01:00am 13.3 11.4 11.8 91 0.8 SW 13 15 7 8 1019.9 - 0.2

Other Formats:

Comma delimited format used in spreadsheet applications
http://www.bom.gov.au/fwo/IDN60801/IDN60801.94791.axf

JavaScript Object Notation format (JSON) in row-major order
http://www.bom.gov.au/fwo/IDN60801/IDN60801.94791.json